Terminal Aerodrome Forecast
Issued by NWS

Home | Current Version | Previous Version | Text Only | Print | Product List | Glossary On
Versions: 1 2 3 4 5 6 7 8 9 10 11 12
000
FTUS42 KTBW 212300
TAFLAL
TAF
KLAL 212336Z 2200/2224 VRB03KT P6SM BKN250
     FM220900 00000KT 5SM BR SCT250
     FM221500 03007KT P6SM FEW250
     FM221800 02006KT P6SM FEW040 SCT250
      AMD NOT SKED 2203/2212=

USA.gov is the U.S. government's official web portal to all federal, state and local government web resources and services.